Time;durP1;ratioP1;P1;durP2;ratioP2;P2;SDS_P1;SDS_P2;PMS_P1;PMS_P2;Temp;Humidity;BMP_temperature;BMP_pressure;BME280_temperature;BME280_humidity;BME280_pressure;Samples;Min_cycle;Max_cycle;Signal;HPM_P1;HPM_P2
2024/02/05 00:00:38;;;;;;;1.10;1.10;;;11.70;41.30;;;;;;10527029;28;20228;-68
2024/02/05 00:05:41;;;;;;;1.30;1.20;;;11.70;41.40;;;;;;10523041;28;20338;-72
2024/02/05 00:10:46;;;;;;;2.37;1.43;;;11.70;41.40;;;;;;10528525;28;20219;-70
2024/02/05 00:15:50;;;;;;;1.57;1.30;;;11.70;41.40;;;;;;10522196;28;20223;-70
2024/02/05 00:20:53;;;;;;;1.53;1.30;;;11.70;41.40;;;;;;10531775;28;20658;-72
2024/02/05 00:25:57;;;;;;;1.47;1.37;;;11.70;41.40;;;;;;10532063;28;20303;-68
2024/02/05 00:31:01;;;;;;;1.83;1.60;;;11.70;41.30;;;;;;10536360;28;20273;-72
2024/02/05 00:36:06;;;;;;;2.27;1.57;;;11.80;41.30;;;;;;10529790;27;20305;-73
2024/02/05 00:41:09;;;;;;;2.20;1.30;;;11.80;41.10;;;;;;10532651;28;20219;-68
2024/02/05 00:46:22;;;;;;;3.07;1.40;;;11.80;41.20;;;;;;10531828;28;20243;-68
2024/02/05 00:51:27;;;;;;;1.10;1.10;;;11.70;41.10;;;;;;10541166;28;20306;-72
2024/02/05 00:56:30;;;;;;;1.87;1.50;;;11.80;41.00;;;;;;10535438;28;20233;-72
2024/02/05 01:01:34;;;;;;;1.47;1.30;;;11.80;40.90;;;;;;10534103;28;20608;-72
2024/02/05 01:06:38;;;;;;;1.60;1.50;;;11.80;40.80;;;;;;10531016;28;20276;-72
2024/02/05 01:11:41;;;;;;;1.93;1.33;;;11.80;40.80;;;;;;10534722;27;20302;-72
2024/02/05 01:16:46;;;;;;;1.30;1.13;;;11.80;40.80;;;;;;10525077;28;20223;-72
2024/02/05 01:21:49;;;;;;;2.53;1.20;;;11.80;40.70;;;;;;10532775;28;20251;-73
2024/02/05 01:26:52;;;;;;;1.70;1.40;;;11.90;40.90;;;;;;10531256;28;20251;-72
2024/02/05 01:31:57;;;;;;;1.50;1.40;;;11.90;40.80;;;;;;10528932;28;20219;-72
2024/02/05 01:37:00;;;;;;;1.70;1.30;;;11.90;40.80;;;;;;10523698;27;20318;-72
2024/02/05 01:42:04;;;;;;;2.90;1.37;;;12.00;40.80;;;;;;10541134;28;20224;-72
2024/02/05 01:47:09;;;;;;;1.20;1.10;;;12.00;40.60;;;;;;10528561;28;20224;-72
2024/02/05 01:52:15;;;;;;;1.33;1.23;;;12.00;40.60;;;;;;10529505;28;20246;-73
2024/02/05 01:57:18;;;;;;;1.53;1.23;;;12.00;40.70;;;;;;10530665;28;20987;-70
2024/02/05 02:02:23;;;;;;;1.30;1.20;;;12.00;40.60;;;;;;10527813;27;20323;-68
2024/02/05 02:07:27;;;;;;;1.13;1.07;;;12.00;40.60;;;;;;10531800;28;20230;-72
2024/02/05 02:12:30;;;;;;;1.47;1.23;;;12.10;40.70;;;;;;10532016;28;20232;-68
2024/02/05 02:17:39;;;;;;;1.43;1.23;;;12.10;41.40;;;;;;10528053;28;20226;-69
2024/02/05 02:22:52;;;;;;;1.77;1.00;;;12.10;40.90;;;;;;10533697;28;20219;-69
2024/02/05 02:27:56;;;;;;;2.27;1.27;;;12.10;40.90;;;;;;10529603;28;20227;-69
2024/02/05 02:33:07;;;;;;;2.50;1.23;;;12.10;40.70;;;;;;10528817;28;20224;-72
2024/02/05 02:38:12;;;;;;;1.37;1.10;;;12.10;40.80;;;;;;10532923;27;20721;-72
2024/02/05 02:43:18;;;;;;;1.00;1.00;;;12.10;40.80;;;;;;10526414;28;20255;-68
2024/02/05 02:48:22;;;;;;;1.20;1.10;;;12.00;41.00;;;;;;10530728;28;20236;-68
2024/02/05 02:53:25;;;;;;;1.00;1.00;;;12.00;41.70;;;;;;10525767;28;20782;-69
2024/02/05 02:58:30;;;;;;;1.40;1.30;;;12.00;41.00;;;;;;10533336;28;20310;-69
2024/02/05 03:03:34;;;;;;;1.00;1.00;;;12.00;41.20;;;;;;10527147;28;20219;-72
2024/02/05 03:08:37;;;;;;;1.03;1.03;;;12.00;41.20;;;;;;10526600;28;20231;-72
2024/02/05 03:13:42;;;;;;;1.30;1.20;;;11.90;41.30;;;;;;10532822;28;20319;-72
2024/02/05 03:18:45;;;;;;;1.43;1.10;;;11.90;41.60;;;;;;10524363;28;20222;-68
2024/02/05 03:23:48;;;;;;;2.10;1.20;;;11.80;41.50;;;;;;10533548;28;20254;-68
2024/02/05 03:28:53;;;;;;;0.93;0.90;;;11.80;41.50;;;;;;10528419;28;20239;-72
2024/02/05 03:33:57;;;;;;;0.80;0.70;;;11.70;41.40;;;;;;10527572;28;20219;-69
2024/02/05 03:39:00;;;;;;;0.70;0.70;;;11.70;41.40;;;;;;10527078;28;20227;-70
2024/02/05 03:44:04;;;;;;;0.73;0.60;;;11.70;41.40;;;;;;10528429;28;20215;-70
2024/02/05 03:49:07;;;;;;;0.70;0.70;;;11.60;41.30;;;;;;10529769;28;20215;-68
2024/02/05 03:54:11;;;;;;;0.70;0.70;;;11.50;41.30;;;;;;10534099;28;20244;-72
2024/02/05 03:59:16;;;;;;;0.60;0.60;;;11.50;41.30;;;;;;10533050;28;20235;-72
2024/02/05 04:04:19;;;;;;;0.60;0.60;;;11.50;41.30;;;;;;10541113;28;20236;-69
2024/02/05 04:09:22;;;;;;;0.73;0.73;;;11.60;41.30;;;;;;10534578;28;20721;-70
2024/02/05 04:14:27;;;;;;;0.70;0.70;;;11.60;41.30;;;;;;10536500;27;20231;-70
2024/02/05 04:19:30;;;;;;;0.70;0.70;;;11.70;41.40;;;;;;10538802;28;20672;-72
2024/02/05 04:24:34;;;;;;;0.67;0.67;;;11.60;41.30;;;;;;10535450;28;20224;-72
2024/02/05 04:29:40;;;;;;;0.67;0.67;;;11.70;41.40;;;;;;10535656;28;20224;-68
2024/02/05 04:34:43;;;;;;;0.70;0.70;;;11.60;41.30;;;;;;10531410;28;20235;-68
2024/02/05 04:39:47;;;;;;;0.70;0.50;;;11.60;41.30;;;;;;10532519;27;20310;-68
2024/02/05 04:44:51;;;;;;;1.00;1.00;;;11.60;41.30;;;;;;10535522;28;20638;-69
2024/02/05 04:49:54;;;;;;;0.60;0.60;;;11.60;41.10;;;;;;10531028;28;20220;-73
2024/02/05 04:54:58;;;;;;;0.87;0.60;;;11.70;40.90;;;;;;10530076;27;20242;-72
2024/02/05 05:00:03;;;;;;;0.63;0.63;;;11.60;41.10;;;;;;10538649;28;20230;-72
2024/02/05 05:05:06;;;;;;;0.60;0.60;;;11.60;41.00;;;;;;10528217;28;20227;-68
2024/02/05 05:10:10;;;;;;;0.60;0.60;;;11.60;41.00;;;;;;10537804;28;20219;-69
2024/02/05 05:15:16;;;;;;;0.60;0.60;;;11.50;41.10;;;;;;10537244;28;20234;-70
2024/02/05 05:20:20;;;;;;;0.93;0.50;;;11.50;40.80;;;;;;10533189;28;20228;-71
2024/02/05 05:25:23;;;;;;;0.60;0.60;;;11.50;40.80;;;;;;10528543;28;20659;-72
2024/02/05 05:30:28;;;;;;;0.60;0.60;;;11.40;41.10;;;;;;10529233;27;20227;-72
2024/02/05 05:35:31;;;;;;;0.50;0.50;;;11.40;41.90;;;;;;10535175;28;20905;-72
2024/02/05 05:40:34;;;;;;;0.70;0.70;;;11.40;41.00;;;;;;10536553;28;20598;-72
2024/02/05 05:45:39;;;;;;;0.80;0.80;;;11.40;41.20;;;;;;10533409;28;21312;-72
2024/02/05 05:50:42;;;;;;;0.60;0.60;;;11.40;40.90;;;;;;10528447;28;20227;-73
2024/02/05 05:55:48;;;;;;;0.90;0.70;;;11.40;40.80;;;;;;10524063;27;20321;-70
2024/02/05 06:00:53;;;;;;;0.83;0.80;;;11.40;41.00;;;;;;10522475;28;20326;-70
2024/02/05 06:05:57;;;;;;;0.70;0.70;;;11.30;40.70;;;;;;10514527;28;20250;-70
2024/02/05 06:11:00;;;;;;;0.80;0.80;;;11.40;41.10;;;;;;10517175;28;20215;-73
2024/02/05 06:16:08;;;;;;;0.70;0.70;;;11.40;40.80;;;;;;10516433;28;20232;-73
2024/02/05 06:21:11;;;;;;;0.90;0.90;;;11.40;40.70;;;;;;10517767;28;20690;-75
2024/02/05 06:26:14;;;;;;;1.07;1.07;;;11.40;40.90;;;;;;10525954;27;20227;-71
2024/02/05 06:31:19;;;;;;;1.30;1.20;;;11.30;40.80;;;;;;10528276;27;20227;-71
2024/02/05 06:36:22;;;;;;;1.00;1.00;;;11.30;40.90;;;;;;10526510;28;20255;-72
2024/02/05 06:41:25;;;;;;;1.00;1.00;;;11.30;41.00;;;;;;10525668;28;20224;-72
2024/02/05 06:46:30;;;;;;;0.70;0.70;;;11.20;41.00;;;;;;10525805;28;20254;-72
2024/02/05 06:51:33;;;;;;;2.40;0.93;;;11.30;41.00;;;;;;10519278;28;20628;-72
2024/02/05 06:56:37;;;;;;;0.80;0.80;;;11.30;40.90;;;;;;10525140;28;20230;-72
2024/02/05 07:01:41;;;;;;;1.47;0.80;;;11.30;41.00;;;;;;10530156;27;20234;-72
2024/02/05 07:06:45;;;;;;;1.33;0.90;;;11.20;41.00;;;;;;10525189;28;20295;-72
2024/02/05 07:11:48;;;;;;;1.03;0.83;;;11.20;41.00;;;;;;10529514;28;20246;-69
2024/02/05 07:16:53;;;;;;;0.63;0.63;;;11.20;41.00;;;;;;10527287;27;20223;-68
2024/02/05 07:21:56;;;;;;;2.37;0.80;;;11.10;40.90;;;;;;10534749;28;20250;-68
2024/02/05 07:26:59;;;;;;;1.03;0.77;;;11.10;40.90;;;;;;10526537;27;20263;-68
2024/02/05 07:32:04;;;;;;;0.97;0.90;;;11.10;40.90;;;;;;10527961;28;20226;-68
2024/02/05 07:37:07;;;;;;;0.70;0.70;;;11.10;40.90;;;;;;10530318;28;20346;-69
2024/02/05 07:42:11;;;;;;;1.00;0.90;;;11.10;40.90;;;;;;10518905;28;20733;-72
2024/02/05 07:47:16;;;;;;;1.00;0.90;;;11.10;40.90;;;;;;10517518;28;20619;-71
2024/02/05 07:52:19;;;;;;;0.90;0.90;;;11.10;40.90;;;;;;10528645;28;20677;-72
2024/02/05 07:57:22;;;;;;;1.17;0.93;;;11.20;41.00;;;;;;10517521;28;20234;-72
2024/02/05 08:02:27;;;;;;;1.70;1.30;;;11.20;41.00;;;;;;10511672;28;20234;-72
2024/02/05 08:07:30;;;;;;;1.17;0.80;;;11.20;41.00;;;;;;10511484;28;20224;-72
2024/02/05 08:12:33;;;;;;;1.27;0.70;;;11.30;41.00;;;;;;10518351;28;20226;-72
2024/02/05 08:17:38;;;;;;;1.33;0.70;;;11.30;41.00;;;;;;10515181;28;20247;-72
2024/02/05 08:22:42;;;;;;;2.30;1.00;;;11.30;40.70;;;;;;10512984;28;20227;-72
2024/02/05 08:27:45;;;;;;;1.03;1.00;;;11.40;41.10;;;;;;10518376;28;20257;-72
2024/02/05 08:32:49;;;;;;;1.40;1.30;;;11.40;41.00;;;;;;10520763;28;20223;-72
2024/02/05 08:37:53;;;;;;;2.73;1.07;;;11.50;40.80;;;;;;10516089;28;20232;-69
2024/02/05 08:42:57;;;;;;;1.33;1.10;;;11.50;40.80;;;;;;10529927;28;20587;-72
2024/02/05 08:48:02;;;;;;;2.00;0.93;;;11.70;40.50;;;;;;10527931;28;20684;-72
2024/02/05 08:53:05;;;;;;;0.87;0.70;;;11.70;40.30;;;;;;10526624;28;20576;-72
2024/02/05 08:58:09;;;;;;;1.53;0.93;;;11.70;40.20;;;;;;10531370;28;20737;-72
2024/02/05 09:03:14;;;;;;;1.13;0.90;;;11.80;40.20;;;;;;10532772;28;20224;-71
2024/02/05 09:08:18;;;;;;;0.77;0.77;;;11.80;40.00;;;;;;10533069;28;20226;-72
2024/02/05 09:13:21;;;;;;;1.13;0.90;;;11.80;40.10;;;;;;10528586;28;20298;-72
2024/02/05 09:18:26;;;;;;;1.13;0.70;;;11.80;40.00;;;;;;10536121;28;20232;-72
2024/02/05 09:23:29;;;;;;;0.97;0.73;;;11.90;39.80;;;;;;10530332;28;20227;-72
2024/02/05 09:28:32;;;;;;;1.50;0.80;;;11.90;39.90;;;;;;10532010;27;20645;-72
2024/02/05 09:33:38;;;;;;;1.17;1.00;;;11.90;40.00;;;;;;10526719;27;20227;-72
2024/02/05 09:38:41;;;;;;;2.50;1.13;;;11.90;39.70;;;;;;10533419;28;20346;-72
2024/02/05 09:43:46;;;;;;;1.93;0.90;;;11.90;39.70;;;;;;10526258;28;20234;-72
2024/02/05 09:48:52;;;;;;;1.67;0.90;;;11.90;39.50;;;;;;10521590;28;20250;-70
2024/02/05 09:53:57;;;;;;;1.40;0.93;;;11.90;39.40;;;;;;10519529;28;20239;-70
2024/02/05 09:59:17;;;;;;;2.03;0.90;;;11.90;39.40;;;;;;10519544;28;20219;-70
2024/02/05 10:04:25;;;;;;;1.20;1.00;;;11.90;39.70;;;;;;10514283;28;20234;-70
2024/02/05 10:09:30;;;;;;;1.90;1.57;;;12.00;39.40;;;;;;10527626;28;20223;-70
2024/02/05 10:14:34;;;;;;;1.23;0.90;;;12.10;39.60;;;;;;10515687;28;20672;-70
2024/02/05 10:19:39;;;;;;;1.77;0.97;;;12.30;40.00;;;;;;10528636;28;20287;-70
2024/02/05 10:24:42;;;;;;;2.37;1.30;;;12.40;39.10;;;;;;10529517;28;20231;-70
2024/02/05 10:29:46;;;;;;;1.30;0.90;;;12.60;39.30;;;;;;10530263;27;20227;-70
2024/02/05 10:34:53;;;;;;;1.73;0.80;;;12.80;39.00;;;;;;10530407;27;20314;-70
2024/02/05 10:40:05;;;;;;;1.93;1.10;;;12.90;38.50;;;;;;10526534;28;20335;-70
2024/02/05 10:45:09;;;;;;;1.40;1.00;;;13.10;38.80;;;;;;10525448;27;20226;-70
2024/02/05 10:50:14;;;;;;;1.27;0.90;;;13.30;39.20;;;;;;10530722;28;20644;-70
2024/02/05 10:55:18;;;;;;;2.27;0.90;;;13.50;38.50;;;;;;10529670;28;20223;-70
2024/02/05 11:00:21;;;;;;;2.40;1.17;;;13.60;38.20;;;;;;10528368;28;20236;-70
2024/02/05 11:05:27;;;;;;;2.00;1.17;;;13.60;37.80;;;;;;10521545;28;20724;-70
2024/02/05 11:10:33;;;;;;;0.90;0.83;;;13.50;37.20;;;;;;10512696;28;20652;-70
2024/02/05 11:15:40;;;;;;;1.27;1.00;;;13.60;37.80;;;;;;10519025;28;20781;-70
2024/02/05 11:20:48;;;;;;;1.20;0.93;;;13.60;37.60;;;;;;10518693;28;20223;-70
2024/02/05 11:25:52;;;;;;;1.43;1.07;;;13.70;37.20;;;;;;10526256;28;20301;-70
2024/02/05 11:31:02;;;;;;;4.00;1.00;;;13.70;37.20;;;;;;10530428;28;20298;-72
2024/02/05 11:36:12;;;;;;;1.20;1.00;;;13.80;36.50;;;;;;10527696;28;20230;-72
2024/02/05 11:41:21;;;;;;;0.90;0.90;;;13.80;37.00;;;;;;10526179;27;20841;-72
2024/02/05 11:46:24;;;;;;;1.47;1.30;;;13.90;37.20;;;;;;10511428;28;20241;-72
2024/02/05 11:51:29;;;;;;;3.77;1.40;;;14.10;37.40;;;;;;10508811;28;20311;-69
2024/02/05 11:56:35;;;;;;;1.67;1.33;;;14.10;37.00;;;;;;10515909;28;20346;-68
2024/02/05 12:01:42;;;;;;;1.60;1.30;;;14.20;37.60;;;;;;10527225;28;20231;-70
2024/02/05 12:06:48;;;;;;;2.33;1.40;;;14.30;37.00;;;;;;10521602;28;20239;-71
2024/02/05 12:11:52;;;;;;;2.10;1.50;;;14.40;36.90;;;;;;10523048;28;20207;-72
2024/02/05 12:16:55;;;;;;;2.60;1.37;;;14.40;37.00;;;;;;10528648;28;20227;-71
2024/02/05 12:21:59;;;;;;;3.77;1.53;;;14.50;36.90;;;;;;10529658;27;20246;-71
2024/02/05 12:27:03;;;;;;;2.50;1.60;;;14.50;36.40;;;;;;10532870;27;20230;-71
2024/02/05 12:32:07;;;;;;;4.07;1.80;;;14.50;36.70;;;;;;10531322;28;20713;-72
2024/02/05 12:37:12;;;;;;;3.20;1.50;;;14.50;36.80;;;;;;10533070;27;20331;-71
2024/02/05 12:42:16;;;;;;;2.83;1.70;;;14.50;36.50;;;;;;10533353;27;20309;-71
2024/02/05 12:47:19;;;;;;;2.67;1.60;;;14.50;36.90;;;;;;10536997;28;20630;-71
2024/02/05 12:52:24;;;;;;;2.47;1.60;;;14.60;36.60;;;;;;10526820;28;20269;-71
2024/02/05 12:57:28;;;;;;;3.43;2.50;;;14.60;35.90;;;;;;10529041;28;20224;-72
2024/02/05 13:02:31;;;;;;;2.83;1.80;;;14.60;36.50;;;;;;10525525;28;20227;-71
2024/02/05 13:07:37;;;;;;;2.03;1.60;;;14.70;36.40;;;;;;10526270;27;20227;-71
2024/02/05 13:12:41;;;;;;;2.20;1.60;;;14.70;36.00;;;;;;10528199;28;20248;-71
2024/02/05 13:17:45;;;;;;;3.37;1.80;;;14.70;35.90;;;;;;10531665;28;20242;-71
2024/02/05 13:22:50;;;;;;;3.60;1.67;;;14.70;35.70;;;;;;10526038;28;20266;-71
2024/02/05 13:27:53;;;;;;;4.93;1.90;;;14.70;35.50;;;;;;10527864;28;20234;-72
2024/02/05 13:32:56;;;;;;;3.10;1.70;;;14.70;35.90;;;;;;10534499;28;20222;-72
2024/02/05 13:38:02;;;;;;;3.93;1.60;;;14.70;35.50;;;;;;10535285;27;20266;-68
2024/02/05 13:43:08;;;;;;;4.37;1.50;;;14.60;35.30;;;;;;10532538;28;20226;-67
2024/02/05 13:48:12;;;;;;;3.10;1.70;;;14.70;35.80;;;;;;10531766;27;20280;-68
2024/02/05 13:53:16;;;;;;;2.40;1.77;;;14.70;35.40;;;;;;10533235;28;21451;-68
2024/02/05 13:58:20;;;;;;;3.10;1.70;;;14.70;35.00;;;;;;10529205;28;20281;-68
2024/02/05 14:03:23;;;;;;;2.30;1.70;;;14.70;35.60;;;;;;10530753;27;20224;-68
2024/02/05 14:08:29;;;;;;;4.77;1.90;;;14.70;35.80;;;;;;10530160;27;20675;-68
2024/02/05 14:13:32;;;;;;;3.77;1.57;;;14.70;34.80;;;;;;10530660;27;20223;-68
2024/02/05 14:18:35;;;;;;;2.50;1.80;;;14.70;35.40;;;;;;10531559;28;20227;-68
2024/02/05 14:23:40;;;;;;;4.57;1.77;;;14.70;35.30;;;;;;10530058;28;20227;-68
2024/02/05 14:28:43;;;;;;;2.87;1.70;;;14.70;35.00;;;;;;10529951;28;20723;-68
2024/02/05 14:33:46;;;;;;;3.77;1.60;;;14.80;35.40;;;;;;10526360;28;20231;-68
2024/02/05 14:38:51;;;;;;;4.50;1.87;;;14.80;35.20;;;;;;10529386;28;20703;-68
2024/02/05 14:43:54;;;;;;;2.53;1.67;;;14.90;34.70;;;;;;10529270;28;20318;-68
2024/02/05 14:48:57;;;;;;;2.63;1.20;;;14.90;35.10;;;;;;10528990;28;20218;-68
2024/02/05 14:54:02;;;;;;;2.73;1.37;;;15.00;35.00;;;;;;10526193;28;20239;-68
2024/02/05 14:59:05;;;;;;;1.83;1.50;;;15.00;34.70;;;;;;10531283;28;20604;-68
2024/02/05 15:04:08;;;;;;;1.50;1.40;;;14.90;34.70;;;;;;10530798;28;20870;-68
2024/02/05 15:09:13;;;;;;;3.60;1.63;;;14.90;34.60;;;;;;10531261;28;20226;-68
2024/02/05 15:14:17;;;;;;;2.13;1.30;;;14.90;34.30;;;;;;10529448;28;20321;-69
2024/02/05 15:19:20;;;;;;;2.87;1.67;;;14.90;34.40;;;;;;10536543;28;21237;-68
2024/02/05 15:24:25;;;;;;;3.37;2.00;;;14.90;34.70;;;;;;10528554;28;20634;-68
2024/02/05 15:29:28;;;;;;;3.23;1.60;;;14.90;34.30;;;;;;10528433;28;20227;-71
2024/02/05 15:34:33;;;;;;;2.17;1.40;;;14.90;34.70;;;;;;10524306;28;20480;-71
2024/02/05 15:39:38;;;;;;;3.60;1.20;;;14.90;34.60;;;;;;10519146;27;20306;-71
2024/02/05 15:44:42;;;;;;;2.40;1.30;;;14.90;34.10;;;;;;10534373;28;20224;-72
2024/02/05 15:49:45;;;;;;;4.23;1.80;;;14.90;34.50;;;;;;10531743;28;20233;-72
2024/02/05 15:54:49;;;;;;;3.63;1.90;;;14.90;34.50;;;;;;10536710;27;20310;-72
2024/02/05 15:59:52;;;;;;;4.87;1.90;;;14.80;34.10;;;;;;10538316;27;20226;-72
2024/02/05 16:04:56;;;;;;;3.20;2.40;;;14.80;34.40;;;;;;10534840;28;20234;-73
2024/02/05 16:10:01;;;;;;;4.60;2.20;;;14.80;34.30;;;;;;10539087;27;20231;-71
2024/02/05 16:15:05;;;;;;;3.93;2.17;;;14.70;34.00;;;;;;10536231;28;20586;-68
2024/02/05 16:20:11;;;;;;;2.83;2.00;;;14.60;34.20;;;;;;10527016;28;20238;-69
2024/02/05 16:25:27;;;;;;;2.17;1.60;;;14.50;34.10;;;;;;10527104;27;20235;-70
2024/02/05 16:30:34;;;;;;;2.77;2.23;;;14.40;33.80;;;;;;10531693;28;20223;-70
2024/02/05 16:35:38;;;;;;;3.50;1.90;;;14.40;34.20;;;;;;10527640;28;20580;-70
2024/02/05 16:40:43;;;;;;;6.13;3.37;;;14.30;34.10;;;;;;10532001;27;20747;-70
2024/02/05 16:45:46;;;;;;;2.80;1.90;;;14.20;33.90;;;;;;10530356;27;20231;-72
2024/02/05 16:50:49;;;;;;;4.77;2.60;;;14.20;34.20;;;;;;10533207;28;20617;-72
2024/02/05 16:55:54;;;;;;;5.10;1.87;;;14.20;34.20;;;;;;10529869;28;20439;-72
2024/02/05 17:00:58;;;;;;;2.53;1.77;;;14.20;33.90;;;;;;10527220;28;20231;-72
2024/02/05 17:06:01;;;;;;;3.47;1.80;;;14.10;34.10;;;;;;10534476;28;20318;-72
2024/02/05 17:11:06;;;;;;;3.50;1.80;;;14.10;34.30;;;;;;10528424;28;20283;-72
2024/02/05 17:16:10;;;;;;;3.43;2.40;;;14.20;33.70;;;;;;10527688;28;20319;-69
2024/02/05 17:21:15;;;;;;;6.47;2.43;;;14.10;33.80;;;;;;10537365;28;20250;-72
2024/02/05 17:26:20;;;;;;;6.03;3.60;;;14.10;33.60;;;;;;10527947;28;20318;-69
2024/02/05 17:31:24;;;;;;;8.47;6.17;;;14.10;33.50;;;;;;10538034;28;20273;-69
2024/02/05 17:36:27;;;;;;;10.57;5.87;;;14.00;33.60;;;;;;10534169;28;20773;-72
2024/02/05 17:41:31;;;;;;;7.27;5.23;;;14.00;33.60;;;;;;10534518;28;20314;-69
2024/02/05 17:46:35;;;;;;;9.30;8.23;;;13.90;33.20;;;;;;10536958;28;20227;-69
2024/02/05 17:51:38;;;;;;;7.67;3.90;;;13.90;33.40;;;;;;10533378;28;20220;-72
2024/02/05 17:56:43;;;;;;;11.57;4.87;;;13.90;33.50;;;;;;10533905;28;20314;-71
2024/02/05 18:01:46;;;;;;;3.83;2.73;;;13.70;33.20;;;;;;10530529;28;20227;-72
2024/02/05 18:06:49;;;;;;;5.20;2.53;;;13.60;33.60;;;;;;10523397;28;20263;-72
2024/02/05 18:11:54;;;;;;;5.80;2.47;;;13.50;33.60;;;;;;10526530;27;20669;-72
2024/02/05 18:16:57;;;;;;;5.53;2.63;;;13.50;33.30;;;;;;10529914;28;20224;-72
2024/02/05 18:22:00;;;;;;;6.37;2.20;;;13.60;33.70;;;;;;10527205;28;20304;-69
2024/02/05 18:27:05;;;;;;;4.77;2.23;;;13.60;33.40;;;;;;10531755;28;20598;-69
2024/02/05 18:32:09;;;;;;;8.07;2.70;;;13.60;32.80;;;;;;10529598;27;20597;-69
2024/02/05 18:37:12;;;;;;;6.13;2.70;;;13.70;33.20;;;;;;10531058;28;20231;-72
2024/02/05 18:42:17;;;;;;;5.77;2.67;;;13.80;33.20;;;;;;10522925;28;20223;-72
2024/02/05 18:47:21;;;;;;;7.70;2.27;;;13.80;32.50;;;;;;10532428;28;20292;-72
2024/02/05 18:52:24;;;;;;;6.80;3.40;;;13.80;32.70;;;;;;10536647;28;20219;-72
2024/02/05 18:57:28;;;;;;;5.20;2.80;;;13.80;32.80;;;;;;10528519;28;20223;-72
2024/02/05 19:02:32;;;;;;;6.17;2.57;;;13.80;32.30;;;;;;10526343;28;20589;-72
2024/02/05 19:07:35;;;;;;;8.43;2.70;;;13.80;32.50;;;;;;10518830;28;20350;-72
2024/02/05 19:12:42;;;;;;;5.80;2.30;;;13.80;32.30;;;;;;10524224;28;20218;-72
2024/02/05 19:17:46;;;;;;;4.47;2.47;;;13.80;31.80;;;;;;10514528;28;20605;-72
2024/02/05 19:22:51;;;;;;;7.27;2.37;;;13.70;32.30;;;;;;10523706;28;20219;-71
2024/02/05 19:27:56;;;;;;;6.87;2.83;;;13.70;32.10;;;;;;10521906;28;20318;-72
2024/02/05 19:33:00;;;;;;;5.27;2.70;;;13.70;31.70;;;;;;10527998;28;20224;-71
2024/02/05 19:38:04;;;;;;;5.90;2.63;;;13.70;31.90;;;;;;10527477;28;20224;-71
2024/02/05 19:43:08;;;;;;;7.00;2.43;;;13.70;31.70;;;;;;10530958;28;20229;-71
2024/02/05 19:48:12;;;;;;;5.53;2.53;;;13.70;31.20;;;;;;10523886;28;20235;-72
2024/02/05 19:53:16;;;;;;;6.70;2.80;;;13.60;31.30;;;;;;10520715;28;20223;-69
2024/02/05 19:58:20;;;;;;;6.97;2.43;;;13.60;31.20;;;;;;10523662;28;20226;-69
2024/02/05 20:03:24;;;;;;;5.87;2.43;;;13.50;30.80;;;;;;10526147;28;20233;-69
2024/02/05 20:08:28;;;;;;;5.53;2.60;;;13.50;31.40;;;;;;10525065;28;20231;-70
2024/02/05 20:13:32;;;;;;;8.27;2.80;;;13.50;31.50;;;;;;10526107;28;20223;-69
2024/02/05 20:18:36;;;;;;;6.47;2.77;;;13.50;30.80;;;;;;10528254;28;20228;-69
2024/02/05 20:23:39;;;;;;;7.50;2.80;;;13.40;30.90;;;;;;10526330;27;20242;-68
2024/02/05 20:28:44;;;;;;;7.43;2.33;;;13.30;30.80;;;;;;10526825;28;20229;-67
2024/02/05 20:33:47;;;;;;;6.97;2.73;;;13.20;30.60;;;;;;10526167;27;20220;-68
2024/02/05 20:38:50;;;;;;;7.97;2.80;;;13.10;31.10;;;;;;10541408;28;20227;-68
2024/02/05 20:43:55;;;;;;;7.17;2.30;;;13.00;31.20;;;;;;10532066;28;20231;-68
2024/02/05 20:48:58;;;;;;;5.47;2.50;;;13.00;30.90;;;;;;10529340;28;20215;-68
2024/02/05 20:54:01;;;;;;;7.80;3.20;;;13.00;31.40;;;;;;10531141;28;20245;-68
2024/02/05 20:59:06;;;;;;;8.53;4.40;;;12.90;31.10;;;;;;10528297;27;20307;-68
2024/02/05 21:04:10;;;;;;;12.97;5.20;;;12.90;30.80;;;;;;10522143;28;20224;-68
2024/02/05 21:09:17;;;;;;;8.73;3.57;;;12.80;31.10;;;;;;10519093;28;20216;-68
2024/02/05 21:14:22;;;;;;;6.70;3.07;;;12.70;31.00;;;;;;10520677;28;20227;-68
2024/02/05 21:19:25;;;;;;;5.53;2.80;;;12.60;30.90;;;;;;10530126;27;20222;-68
2024/02/05 21:24:28;;;;;;;3.87;2.50;;;12.60;31.20;;;;;;10528393;28;20228;-68
2024/02/05 21:29:33;;;;;;;9.23;4.00;;;12.50;31.10;;;;;;10521700;28;20230;-68
2024/02/05 21:34:38;;;;;;;7.07;4.53;;;12.50;30.80;;;;;;10529565;28;20233;-68
2024/02/05 21:39:42;;;;;;;13.43;5.10;;;12.30;30.80;;;;;;10526667;28;20319;-68
2024/02/05 21:44:47;;;;;;;10.07;3.90;;;12.10;31.00;;;;;;10523118;28;20233;-68
2024/02/05 21:49:50;;;;;;;7.27;3.40;;;12.00;31.00;;;;;;10526405;28;20229;-68
2024/02/05 21:54:54;;;;;;;7.10;3.23;;;11.90;31.40;;;;;;10527504;27;20215;-68
2024/02/05 21:59:59;;;;;;;9.47;3.23;;;11.90;31.40;;;;;;10527179;28;20234;-68
2024/02/05 22:05:03;;;;;;;7.83;3.03;;;11.80;31.10;;;;;;10525458;28;20228;-68
2024/02/05 22:10:08;;;;;;;6.43;3.27;;;11.80;31.20;;;;;;10528176;28;20301;-68
2024/02/05 22:15:13;;;;;;;6.97;3.20;;;11.80;31.10;;;;;;10519874;28;20235;-68
2024/02/05 22:20:16;;;;;;;9.50;3.10;;;11.70;30.90;;;;;;10524428;27;20229;-69
2024/02/05 22:25:19;;;;;;;9.60;3.60;;;11.60;30.90;;;;;;10524621;28;20233;-69
2024/02/05 22:30:25;;;;;;;7.07;3.57;;;11.50;31.60;;;;;;10527759;28;20593;-69
2024/02/05 22:35:28;;;;;;;7.60;3.17;;;11.40;30.90;;;;;;10530456;28;20220;-69
2024/02/05 22:40:31;;;;;;;6.60;2.60;;;11.20;30.80;;;;;;10530765;28;20223;-69
2024/02/05 22:45:36;;;;;;;8.00;2.73;;;11.00;31.00;;;;;;10531287;28;20246;-71
2024/02/05 22:50:41;;;;;;;7.33;2.20;;;10.80;31.40;;;;;;10529429;28;20227;-71
2024/02/05 22:55:44;;;;;;;4.77;2.33;;;10.70;31.90;;;;;;10528091;28;20747;-71
2024/02/05 23:00:49;;;;;;;8.20;2.43;;;10.70;32.20;;;;;;10534228;28;20219;-69
2024/02/05 23:05:52;;;;;;;5.90;2.33;;;10.60;32.20;;;;;;10529780;27;20219;-68
2024/02/05 23:10:55;;;;;;;8.60;2.63;;;10.70;32.30;;;;;;10526924;28;22522;-68
2024/02/05 23:16:00;;;;;;;6.00;2.50;;;10.70;32.30;;;;;;10529229;28;20586;-71
2024/02/05 23:21:03;;;;;;;6.20;2.70;;;10.70;32.20;;;;;;10532354;28;20306;-71
2024/02/05 23:26:06;;;;;;;6.03;2.60;;;10.70;32.20;;;;;;10529588;28;20231;-71
2024/02/05 23:31:12;;;;;;;8.17;2.70;;;10.80;32.30;;;;;;10526196;28;20229;-68
2024/02/05 23:36:16;;;;;;;6.23;2.40;;;10.80;32.30;;;;;;10523295;28;20238;-68
2024/02/05 23:41:19;;;;;;;4.60;2.30;;;10.80;32.50;;;;;;10527303;28;20226;-68
2024/02/05 23:46:23;;;;;;;5.23;2.13;;;10.90;32.40;;;;;;10526487;28;20239;-68
2024/02/05 23:51:27;;;;;;;5.87;2.37;;;10.90;32.30;;;;;;10526669;28;20314;-68
2024/02/05 23:56:30;;;;;;;5.90;2.20;;;11.00;32.40;;;;;;10528526;28;20230;-68
